Time;durP1;ratioP1;P1;durP2;ratioP2;P2;SDS_P1;SDS_P2;PMS_P1;PMS_P2;Temp;Humidity;BMP_temperature;BMP_pressure;BME280_temperature;BME280_humidity;BME280_pressure;Samples;Min_cycle;Max_cycle;Signal;HPM_P1;HPM_P2
2022/07/02 00:08:26;;;;;;;6.47;2.30;;;17.70;91.30;;;;;;21094847;28;20659;-66
2022/07/02 00:18:29;;;;;;;3.07;2.47;;;17.60;91.50;;;;;;21093680;28;20734;-65
2022/07/02 00:28:35;;;;;;;2.57;2.20;;;17.50;91.70;;;;;;21093254;28;20208;-65
2022/07/02 00:38:36;;;;;;;2.53;2.20;;;17.40;91.90;;;;;;21091989;28;20283;-64
2022/07/02 00:48:39;;;;;;;6.27;2.40;;;17.30;92.40;;;;;;21091059;28;20246;-63
2022/07/02 00:58:41;;;;;;;2.90;2.50;;;17.20;92.20;;;;;;21090747;28;20280;-64
2022/07/02 01:19:06;;;;;;;4.53;3.00;;;17.10;92.70;;;;;;21088932;28;20242;-66
2022/07/02 01:29:08;;;;;;;4.23;2.50;;;16.90;92.70;;;;;;21088243;28;20213;-64
2022/07/02 01:39:10;;;;;;;4.67;2.67;;;16.80;93.20;;;;;;21087195;28;20247;-69
2022/07/02 01:49:12;;;;;;;4.00;2.60;;;16.80;93.20;;;;;;21086636;28;20233;-63
2022/07/02 01:59:13;;;;;;;2.80;2.50;;;16.70;93.40;;;;;;21086823;28;20246;-64
2022/07/02 02:09:15;;;;;;;5.07;2.60;;;16.60;93.50;;;;;;21097657;28;20208;-66
2022/07/02 02:19:17;;;;;;;3.20;2.67;;;16.40;93.60;;;;;;21086463;28;20263;-63
2022/07/02 02:29:19;;;;;;;3.67;2.57;;;16.30;93.90;;;;;;21083841;28;20664;-62
2022/07/02 02:39:20;;;;;;;5.27;2.60;;;16.20;94.30;;;;;;21082224;28;20231;-65
2022/07/02 02:49:22;;;;;;;3.90;2.50;;;16.20;94.30;;;;;;21081553;28;20242;-62
2022/07/02 02:59:24;;;;;;;2.87;2.53;;;16.00;94.80;;;;;;21081343;28;20239;-62
2022/07/02 03:09:25;;;;;;;5.87;3.30;;;16.00;94.90;;;;;;21088512;28;20214;-67
2022/07/02 03:19:27;;;;;;;6.30;3.00;;;15.90;95.10;;;;;;21081176;28;20238;-65
2022/07/02 03:29:29;;;;;;;6.50;2.90;;;15.80;95.10;;;;;;21079704;28;20675;-65
2022/07/02 03:39:30;;;;;;;3.33;3.00;;;15.50;95.60;;;;;;21078524;28;20238;-65
2022/07/02 03:49:32;;;;;;;7.37;3.23;;;15.40;95.70;;;;;;21078674;28;20670;-65
2022/07/02 03:59:34;;;;;;;5.33;3.60;;;15.30;96.00;;;;;;21078066;28;20290;-64
2022/07/02 04:09:36;;;;;;;5.40;3.10;;;15.30;96.10;;;;;;21077407;28;20236;-67
2022/07/02 04:19:37;;;;;;;10.73;3.50;;;15.30;96.20;;;;;;21077988;28;20255;-67
2022/07/02 04:29:39;;;;;;;6.27;3.20;;;15.30;96.30;;;;;;21077079;28;20206;-71
2022/07/02 04:39:41;;;;;;;4.20;3.27;;;15.40;96.50;;;;;;21076143;28;20701;-70
2022/07/02 04:49:42;;;;;;;7.17;3.27;;;15.40;96.80;;;;;;21090851;28;20207;-70
2022/07/02 04:59:44;;;;;;;6.77;3.57;;;15.60;96.90;;;;;;21090632;28;20701;-68
2022/07/02 05:09:46;;;;;;;8.37;3.60;;;15.90;96.90;;;;;;21089235;28;20285;-70
2022/07/02 05:19:48;;;;;;;6.03;3.47;;;16.20;97.00;;;;;;21088709;28;20853;-71
2022/07/02 05:29:49;;;;;;;7.83;3.60;;;16.50;96.80;;;;;;21087822;28;20199;-71
2022/07/02 05:39:51;;;;;;;6.20;3.40;;;16.70;96.70;;;;;;21087279;28;20316;-66
2022/07/02 05:49:54;;;;;;;4.80;3.17;;;17.00;96.60;;;;;;21085788;28;20206;-68
2022/07/02 05:59:56;;;;;;;10.13;3.80;;;17.20;96.30;;;;;;21084888;28;20670;-66
2022/07/02 06:09:58;;;;;;;4.63;3.03;;;17.40;96.10;;;;;;21084469;28;20207;-67
2022/07/02 06:20:00;;;;;;;7.07;2.90;;;17.70;95.90;;;;;;21083637;28;20595;-68
2022/07/02 06:30:04;;;;;;;5.87;2.60;;;17.90;95.80;;;;;;21082679;28;20210;-69
2022/07/02 06:40:06;;;;;;;4.53;2.33;;;18.20;95.60;;;;;;21081135;28;20246;-63
2022/07/02 06:50:09;;;;;;;9.40;2.43;;;18.50;95.50;;;;;;21080328;28;20564;-67
2022/07/02 07:00:11;;;;;;;5.35;3.03;;;18.70;95.10;;;;;;21045812;28;20454;-68
2022/07/02 07:10:14;;;;;;;8.77;2.43;;;19.40;93.60;;;;;;21084649;28;20571;-66
2022/07/02 07:20:26;;;;;;;14.83;2.30;;;19.30;93.90;;;;;;21011114;28;20750;-68
2022/07/02 07:30:28;;;;;;;2.70;1.90;;;19.60;93.60;;;;;;20996518;28;20694;-68
2022/07/02 07:40:30;;;;;;;1.83;1.60;;;19.90;93.20;;;;;;20995716;28;20240;-67
2022/07/02 07:50:31;;;;;;;1.80;1.40;;;20.20;92.70;;;;;;20994754;28;20214;-69
2022/07/02 08:00:33;;;;;;;4.70;1.30;;;20.50;92.20;;;;;;20994008;28;20589;-68
2022/07/02 08:10:35;;;;;;;7.47;1.37;;;20.90;91.70;;;;;;21051244;28;20198;-70
2022/07/02 08:20:37;;;;;;;4.10;1.10;;;21.20;90.10;;;;;;21086172;28;20234;-76
2022/07/02 08:30:38;;;;;;;1.87;1.10;;;21.50;87.70;;;;;;21071452;28;20229;-68
2022/07/02 08:40:44;;;;;;;5.37;1.77;;;21.70;83.90;;;;;;21088679;28;20238;-71
2022/07/02 08:50:50;;;;;;;2.43;1.30;;;22.00;81.40;;;;;;21090836;28;20237;-71
2022/07/02 09:00:53;;;;;;;1.57;1.30;;;22.30;79.50;;;;;;21089792;28;20256;-71
2022/07/02 09:10:56;;;;;;;1.87;1.47;;;22.50;76.40;;;;;;21089823;28;20198;-70
2022/07/02 09:20:57;;;;;;;7.17;1.20;;;22.60;72.60;;;;;;21089551;28;20239;-70
2022/07/02 09:31:05;;;;;;;3.90;1.23;;;22.80;69.80;;;;;;21087607;28;20598;-71
2022/07/02 09:41:12;;;;;;;3.90;1.63;;;23.00;68.60;;;;;;21087560;28;20239;-67
2022/07/02 09:51:15;;;;;;;3.33;1.43;;;23.10;67.70;;;;;;21086382;28;20202;-68
2022/07/02 10:01:23;;;;;;;4.27;1.83;;;23.30;66.30;;;;;;21085696;28;20564;-68
2022/07/02 10:11:26;;;;;;;4.23;1.20;;;23.50;64.30;;;;;;21085353;28;20284;-71
2022/07/02 10:21:29;;;;;;;1.30;1.10;;;23.60;62.20;;;;;;21090112;28;20230;-68
2022/07/02 10:31:36;;;;;;;2.20;1.03;;;23.80;60.70;;;;;;21060090;28;20596;-69
2022/07/02 10:41:38;;;;;;;2.83;2.40;;;23.90;59.40;;;;;;20995676;28;20296;-73
2022/07/02 10:51:43;;;;;;;1.93;1.00;;;24.00;58.50;;;;;;20998304;28;20226;-72
2022/07/02 11:01:45;;;;;;;1.17;1.03;;;24.10;58.40;;;;;;20997619;28;20246;-70
2022/07/02 11:11:53;;;;;;;1.60;1.10;;;24.20;58.40;;;;;;20997818;28;20199;-65
2022/07/02 11:21:57;;;;;;;3.20;1.43;;;24.20;58.80;;;;;;20996473;28;20728;-68
2022/07/02 11:32:00;;;;;;;2.03;1.20;;;24.30;59.20;;;;;;20995844;28;20207;-66
2022/07/02 11:42:02;;;;;;;1.80;1.10;;;24.40;58.60;;;;;;20995941;28;20242;-67
2022/07/02 11:52:06;;;;;;;8.23;1.17;;;24.60;57.90;;;;;;21005648;28;20207;-73
2022/07/02 12:02:07;;;;;;;2.00;1.03;;;24.70;57.30;;;;;;21012801;28;20239;-71
2022/07/02 12:12:10;;;;;;;1.13;1.00;;;24.90;57.50;;;;;;21010001;28;20590;-72
2022/07/02 12:22:23;;;;;;;2.20;0.90;;;25.10;55.60;;;;;;21008369;28;20238;-69
2022/07/02 12:32:27;;;;;;;1.13;1.00;;;25.40;54.30;;;;;;21008925;28;20643;-69
2022/07/02 12:42:33;;;;;;;2.77;1.40;;;25.70;52.80;;;;;;21006701;28;20249;-68
2022/07/02 12:52:50;;;;;;;0.97;0.90;;;25.90;51.90;;;;;;21013943;28;20705;-70
2022/07/02 13:03:15;;;;;;;4.73;1.30;;;25.80;51.00;;;;;;21013517;28;20239;-69
2022/07/02 13:13:18;;;;;;;4.13;0.90;;;25.80;50.90;;;;;;21021181;28;20207;-69
2022/07/02 13:23:20;;;;;;;1.03;1.00;;;25.80;50.10;;;;;;21004755;28;20239;-69
2022/07/02 13:33:21;;;;;;;10.03;1.30;;;25.80;49.80;;;;;;21006663;28;20233;-69
2022/07/02 13:43:23;;;;;;;3.27;0.90;;;25.80;49.60;;;;;;21004545;28;20247;-67
2022/07/02 13:53:25;;;;;;;2.10;0.90;;;25.90;49.50;;;;;;21003144;28;20252;-71
2022/07/02 14:03:26;;;;;;;2.13;1.57;;;25.90;49.00;;;;;;21002047;28;20231;-70
2022/07/02 14:13:28;;;;;;;3.47;1.00;;;25.90;48.70;;;;;;21001292;28;20228;-73
2022/07/02 14:23:31;;;;;;;1.40;0.90;;;25.90;48.30;;;;;;21000787;28;20243;-70
2022/07/02 14:33:33;;;;;;;1.33;1.10;;;26.00;47.80;;;;;;20998673;28;20651;-68
2022/07/02 14:43:35;;;;;;;1.53;1.10;;;26.30;47.30;;;;;;20995896;28;20290;-70
2022/07/02 14:53:37;;;;;;;1.57;1.40;;;26.20;47.10;;;;;;20997736;28;20204;-72
2022/07/02 15:03:39;;;;;;;1.43;1.00;;;26.30;47.00;;;;;;20997199;28;20730;-70
2022/07/02 15:24:08;;;;;;;1.77;1.10;;;26.70;44.80;;;;;;20995924;28;20234;-69
2022/07/02 15:34:13;;;;;;;1.20;0.93;;;26.90;44.30;;;;;;20995353;28;20207;-69
2022/07/02 15:44:16;;;;;;;9.73;2.80;;;26.80;43.90;;;;;;20994825;28;20330;-68
2022/07/02 15:54:26;;;;;;;2.57;1.80;;;26.80;43.70;;;;;;20994922;28;20651;-70
2022/07/02 16:04:31;;;;;;;2.53;1.38;;;27.30;43.20;;;;;;20995862;28;20665;-71
2022/07/02 16:14:33;;;;;;;1.75;1.00;;;27.80;42.70;;;;;;20995317;28;20211;-72
2022/07/02 16:24:35;;;;;;;1.20;1.00;;;29.20;41.10;;;;;;20993767;28;20241;-72
2022/07/02 16:34:44;;;;;;;1.50;1.02;;;28.70;40.80;;;;;;20994209;28;20297;-70
2022/07/02 16:44:46;;;;;;;5.90;1.57;;;27.80;41.30;;;;;;21017047;28;20705;-69
2022/07/02 16:54:48;;;;;;;5.67;1.17;;;27.00;42.20;;;;;;21009421;28;20207;-71
2022/07/02 17:04:51;;;;;;;3.97;1.80;;;26.60;42.90;;;;;;21006847;28;20239;-70
2022/07/02 17:14:54;;;;;;;1.23;1.13;;;26.50;43.50;;;;;;21006004;28;20211;-68
2022/07/02 17:24:56;;;;;;;1.23;1.13;;;26.40;43.60;;;;;;21005354;28;20231;-71
2022/07/02 17:34:57;;;;;;;1.87;1.20;;;26.30;43.90;;;;;;21004457;28;20256;-70
2022/07/02 17:44:59;;;;;;;1.33;0.97;;;26.40;43.90;;;;;;21003693;28;20633;-74
2022/07/02 17:55:02;;;;;;;1.37;1.23;;;27.00;43.50;;;;;;21002749;28;20211;-70
2022/07/02 18:05:04;;;;;;;1.87;1.70;;;26.80;43.20;;;;;;21002501;28;20246;-70
2022/07/02 18:15:07;;;;;;;1.20;1.10;;;26.70;42.90;;;;;;20985038;28;20207;-71
2022/07/02 18:25:09;;;;;;;4.83;1.20;;;26.20;43.30;;;;;;21002365;28;20230;-76
2022/07/02 18:35:11;;;;;;;1.63;1.03;;;25.80;43.70;;;;;;20998589;28;20210;-76
2022/07/02 18:45:13;;;;;;;3.30;1.70;;;25.60;44.00;;;;;;20996394;28;20242;-72
2022/07/02 18:55:15;;;;;;;2.03;1.50;;;25.30;44.30;;;;;;20998177;28;20211;-75
2022/07/02 19:05:16;;;;;;;1.93;1.27;;;25.10;44.80;;;;;;20978359;28;20243;-74
2022/07/02 19:15:18;;;;;;;3.07;1.20;;;24.90;45.40;;;;;;20996847;28;20726;-69
2022/07/02 19:25:20;;;;;;;1.63;1.40;;;24.70;46.00;;;;;;20995617;28;20235;-72
2022/07/02 19:35:22;;;;;;;2.47;1.70;;;24.50;46.50;;;;;;20995988;28;20287;-70
2022/07/02 19:45:25;;;;;;;4.13;1.60;;;24.20;47.30;;;;;;20995497;28;20620;-75
2022/07/02 19:55:27;;;;;;;3.00;1.80;;;23.90;48.20;;;;;;20995599;28;20199;-75
2022/07/02 20:05:29;;;;;;;2.17;1.80;;;23.70;48.80;;;;;;20993809;28;20237;-72
2022/07/02 20:15:31;;;;;;;4.67;1.57;;;23.50;49.70;;;;;;21027745;28;20213;-70
2022/07/02 20:25:33;;;;;;;4.50;1.70;;;23.30;50.30;;;;;;21093805;28;20228;-71
2022/07/02 20:35:35;;;;;;;5.97;2.40;;;23.10;51.10;;;;;;21092727;28;20256;-80
2022/07/02 20:45:38;;;;;;;3.73;2.07;;;22.90;53.20;;;;;;21091760;28;20325;-76
2022/07/02 20:55:39;;;;;;;3.50;2.43;;;22.60;55.20;;;;;;21091682;28;20248;-71
2022/07/02 21:05:41;;;;;;;4.50;2.70;;;22.40;56.30;;;;;;21090358;28;20587;-70
2022/07/02 21:15:43;;;;;;;5.13;3.47;;;22.10;56.70;;;;;;21090087;28;20206;-69
2022/07/02 21:25:45;;;;;;;3.33;2.70;;;21.90;57.00;;;;;;21088443;28;20226;-76
2022/07/02 21:35:48;;;;;;;5.17;3.20;;;21.70;57.30;;;;;;21107026;28;20214;-69
2022/07/02 21:45:50;;;;;;;12.73;4.77;;;21.50;58.40;;;;;;21091397;28;20712;-75
2022/07/02 21:55:52;;;;;;;7.17;3.50;;;21.30;60.00;;;;;;21087738;28;20275;-74
2022/07/02 22:05:53;;;;;;;4.90;3.03;;;21.10;61.40;;;;;;21059909;28;20245;-75
2022/07/02 22:15:55;;;;;;;5.13;2.97;;;20.90;62.20;;;;;;20998893;28;20568;-69
2022/07/02 22:25:58;;;;;;;7.10;5.10;;;20.80;63.10;;;;;;21000680;28;20236;-70
2022/07/02 22:36:00;;;;;;;6.40;4.43;;;20.50;64.50;;;;;;20999576;28;20216;-71
2022/07/02 22:46:02;;;;;;;4.83;3.70;;;20.40;65.90;;;;;;20999126;28;20250;-70
2022/07/02 22:56:04;;;;;;;7.73;3.50;;;20.20;66.70;;;;;;20998559;28;20212;-70
2022/07/02 23:06:08;;;;;;;5.47;4.30;;;20.10;68.00;;;;;;20997586;28;20565;-70
2022/07/02 23:16:10;;;;;;;6.30;4.20;;;20.00;69.20;;;;;;21011683;28;20208;-77
2022/07/02 23:26:12;;;;;;;10.97;3.80;;;19.90;70.20;;;;;;20999584;28;20238;-79
2022/07/02 23:36:16;;;;;;;3.87;3.00;;;19.80;70.50;;;;;;20995410;28;20246;-76
2022/07/02 23:46:17;;;;;;;6.53;3.27;;;19.70;71.50;;;;;;20995098;28;20253;-76
2022/07/02 23:56:19;;;;;;;3.73;2.90;;;19.60;72.20;;;;;;20977225;28;20200;-72
